createdAt,value
2023-05-13T00:01:55.881Z,98546.00
2023-05-13T00:06:57.440Z,98546.63
2023-05-13T00:11:59.026Z,98542.28
2023-05-13T00:17:02.210Z,98540.47
2023-05-13T00:22:03.911Z,98547.03
2023-05-13T00:27:05.604Z,98547.13
2023-05-13T00:32:07.381Z,98546.09
2023-05-13T00:37:10.479Z,98538.38
2023-05-13T00:42:13.714Z,98545.50
2023-05-13T00:47:16.979Z,98545.72
2023-05-13T00:52:18.561Z,98546.47
2023-05-13T00:57:21.186Z,98550.81
2023-05-13T01:02:32.218Z,98547.50
2023-05-13T01:07:55.756Z,98548.75
2023-05-13T01:13:04.121Z,98547.50
2023-05-13T01:18:09.719Z,98546.09
2023-05-13T01:23:12.334Z,98555.00
2023-05-13T01:28:13.886Z,98549.13
2023-05-13T01:33:17.487Z,98553.78
2023-05-13T01:38:20.857Z,98557.00
2023-05-13T01:43:22.384Z,98559.00
2023-05-13T01:48:24.127Z,98558.03
2023-05-13T01:53:25.667Z,98558.88
2023-05-13T01:58:27.216Z,98561.38
2023-05-13T02:03:28.887Z,98563.19
2023-05-13T02:08:31.025Z,98568.47
2023-05-13T02:13:32.655Z,98567.91
2023-05-13T02:18:34.229Z,98570.78
2023-05-13T02:23:35.850Z,98571.41
2023-05-13T02:28:37.380Z,98573.44
2023-05-13T02:33:38.939Z,98578.34
2023-05-13T02:38:40.668Z,98576.72
2023-05-13T02:43:42.598Z,98577.13
2023-05-13T02:48:44.194Z,98586.50
2023-05-13T02:53:45.763Z,98587.94
2023-05-13T02:58:47.367Z,98587.28
2023-05-13T03:03:49.036Z,98590.50
2023-05-13T03:08:50.671Z,98588.97
2023-05-13T03:13:52.225Z,98594.19
2023-05-13T03:18:53.784Z,98595.16
2023-05-13T03:23:55.341Z,98589.84
2023-05-13T03:28:56.945Z,98596.84
2023-05-13T03:33:58.567Z,98590.69
2023-05-13T03:39:00.136Z,98582.91
2023-05-13T03:44:01.855Z,98588.88
2023-05-13T03:49:03.401Z,98589.34
2023-05-13T03:54:04.967Z,98593.72
2023-05-13T03:59:06.511Z,98595.34
2023-05-13T04:04:08.024Z,98591.53
2023-05-13T04:09:09.586Z,98598.00
2023-05-13T04:14:11.216Z,98600.84
2023-05-13T04:19:12.941Z,98613.19
2023-05-13T04:24:14.577Z,98612.13
2023-05-13T04:29:18.070Z,98610.50
2023-05-13T04:34:19.687Z,98614.13
2023-05-13T04:39:21.240Z,98612.72
2023-05-13T04:44:22.771Z,98624.09
2023-05-13T04:49:24.521Z,98620.59
2023-05-13T04:54:26.589Z,98624.88
2023-05-13T04:59:28.238Z,98625.84
2023-05-13T05:04:29.799Z,98633.00
2023-05-13T05:09:31.432Z,98628.56
2023-05-13T05:14:33.256Z,98629.72
2023-05-13T05:19:34.850Z,98639.28
2023-05-13T05:24:36.451Z,98644.22
2023-05-13T05:29:37.990Z,98641.34
2023-05-13T05:34:39.611Z,98646.59
2023-05-13T05:39:41.304Z,98642.88
2023-05-13T05:44:42.936Z,98655.06
2023-05-13T05:49:44.478Z,98658.81
2023-05-13T05:54:46.096Z,98657.81
2023-05-13T05:59:47.802Z,98664.34
2023-05-13T06:04:49.536Z,98673.47
2023-05-13T06:09:51.232Z,98680.19
2023-05-13T06:14:52.807Z,98681.81
2023-05-13T06:19:54.360Z,98686.16
2023-05-13T06:24:56.418Z,98695.78
2023-05-13T06:29:57.989Z,98685.59
2023-05-13T06:34:59.493Z,98697.00
2023-05-13T06:40:01.120Z,98702.41
2023-05-13T06:45:02.674Z,98706.13
2023-05-13T06:50:04.466Z,98707.03
2023-05-13T06:55:06.523Z,98710.50
2023-05-13T07:00:08.499Z,98713.06
2023-05-13T07:05:11.721Z,98722.91
2023-05-13T07:10:13.305Z,98723.38
2023-05-13T07:15:14.871Z,98729.13
2023-05-13T07:20:22.275Z,98723.59
2023-05-13T07:25:25.049Z,98725.50
2023-05-13T07:30:26.629Z,98720.16
2023-05-13T07:35:28.211Z,98724.94
2023-05-13T07:40:29.972Z,98731.31
2023-05-13T07:45:32.203Z,98729.00
2023-05-13T07:50:33.840Z,98736.72
2023-05-13T07:55:35.459Z,98737.84
2023-05-13T08:00:37.033Z,98724.38
2023-05-13T08:05:38.627Z,98730.84
2023-05-13T08:10:40.275Z,98738.16
2023-05-13T08:15:42.670Z,98734.91
2023-05-13T08:20:44.272Z,98735.41
2023-05-13T08:25:45.800Z,98737.88
2023-05-13T08:30:47.340Z,98731.59
2023-05-13T08:35:48.887Z,98739.78
2023-05-13T08:40:50.486Z,98732.19
2023-05-13T08:45:54.901Z,98734.69
2023-05-13T08:50:57.684Z,98736.66
2023-05-13T08:56:00.354Z,98738.88
2023-05-13T09:01:03.378Z,98736.38
2023-05-13T09:06:05.164Z,98743.50
2023-05-13T09:11:07.103Z,98748.53
2023-05-13T09:16:09.206Z,98749.88
2023-05-13T09:21:23.660Z,98753.31
2023-05-13T09:26:29.224Z,98755.28
2023-05-13T09:31:34.110Z,98758.81
2023-05-13T09:36:35.747Z,98753.31
2023-05-13T09:41:37.353Z,98755.53
2023-05-13T09:46:39.029Z,98757.19
2023-05-13T09:51:42.374Z,98754.81
2023-05-13T09:56:44.026Z,98750.28
2023-05-13T10:01:46.926Z,98750.34
2023-05-13T10:06:49.610Z,98753.69
2023-05-13T10:11:51.727Z,98760.16
2023-05-13T10:16:53.713Z,98752.28
2023-05-13T10:21:57.618Z,98759.56
2023-05-13T10:27:01.947Z,98764.69
2023-05-13T10:32:05.075Z,98760.81
2023-05-13T10:37:09.373Z,98757.28
2023-05-13T10:42:33.240Z,98757.50
2023-05-13T10:47:36.157Z,98754.56
2023-05-13T10:52:47.875Z,98759.56
2023-05-13T10:58:09.701Z,98760.84
2023-05-13T11:03:14.450Z,98755.22
2023-05-13T11:08:42.376Z,98757.91
2023-05-13T11:13:44.000Z,98753.88
2023-05-13T11:18:45.804Z,98755.16
2023-05-13T11:23:52.590Z,98744.13
2023-05-13T11:28:59.854Z,98753.16
2023-05-13T11:34:11.451Z,98755.72
2023-05-13T11:39:18.781Z,98761.09
2023-05-13T11:44:22.202Z,98765.66
2023-05-13T11:49:46.563Z,98765.19
2023-05-13T11:54:55.290Z,98766.25
2023-05-13T12:00:05.249Z,98775.28
2023-05-13T12:05:08.974Z,98777.81
2023-05-13T12:10:10.616Z,98787.38
2023-05-13T12:15:15.948Z,98779.09
2023-05-13T12:20:19.655Z,98787.16
2023-05-13T12:25:42.658Z,98790.78
2023-05-13T12:30:54.072Z,98789.66
2023-05-13T12:36:16.481Z,98785.09
2023-05-13T12:41:18.082Z,98786.03
2023-05-13T12:46:20.102Z,98787.84
2023-05-13T12:51:21.992Z,98791.63
2023-05-13T12:56:24.433Z,98794.19
2023-05-13T13:01:26.049Z,98783.72
2023-05-13T13:06:28.815Z,98791.31
2023-05-13T13:11:30.671Z,98782.06
2023-05-13T13:16:32.442Z,98780.16
2023-05-13T13:21:34.007Z,98785.56
2023-05-13T13:26:35.713Z,98780.91
2023-05-13T13:31:37.374Z,98771.41
2023-05-13T13:36:39.369Z,98752.19
2023-05-13T13:41:40.937Z,98758.41
2023-05-13T13:46:42.593Z,98756.28
2023-05-13T13:51:44.268Z,98759.91
2023-05-13T13:56:46.020Z,98764.19
2023-05-13T14:01:47.730Z,98762.66
2023-05-13T14:06:50.756Z,98759.25
2023-05-13T14:11:52.369Z,98768.50
2023-05-13T14:16:54.091Z,98758.47
2023-05-13T14:21:55.721Z,98750.78
2023-05-13T14:26:57.269Z,98755.25
2023-05-13T14:31:59.877Z,98753.94
2023-05-13T14:37:01.578Z,98750.03
2023-05-13T14:42:03.879Z,98754.09
2023-05-13T14:47:06.564Z,98748.78
2023-05-13T14:52:08.177Z,98750.97
2023-05-13T14:57:10.153Z,98749.09
2023-05-13T15:02:13.982Z,98743.91
2023-05-13T15:07:15.816Z,98742.75
2023-05-13T15:12:17.453Z,98741.97
2023-05-13T15:17:19.387Z,98737.03
2023-05-13T15:22:21.012Z,98741.38
2023-05-13T15:27:22.590Z,98753.75
2023-05-13T15:32:24.190Z,98756.22
2023-05-13T15:37:25.878Z,98761.31
2023-05-13T15:42:28.509Z,98771.50
2023-05-13T15:47:30.089Z,98756.59
2023-05-13T15:52:31.762Z,98763.38
2023-05-13T15:57:33.389Z,98755.75
2023-05-13T16:02:39.289Z,98743.00
2023-05-13T16:07:42.216Z,98731.13
2023-05-13T16:12:43.797Z,98745.75
2023-05-13T16:17:45.473Z,98745.94
2023-05-13T16:22:47.079Z,98742.53
2023-05-13T16:27:48.919Z,98745.44
2023-05-13T16:32:53.446Z,98740.63
2023-05-13T16:37:55.200Z,98751.81
2023-05-13T16:42:59.840Z,98756.97
2023-05-13T16:48:03.740Z,98745.19
2023-05-13T16:53:06.113Z,98746.78
2023-05-13T16:58:08.293Z,98749.38
2023-05-13T17:03:10.707Z,98750.59
2023-05-13T17:08:12.809Z,98746.03
2023-05-13T17:13:14.906Z,98751.56
2023-05-13T17:18:16.993Z,98755.91
2023-05-13T17:23:18.960Z,98758.03
2023-05-13T17:28:20.914Z,98767.03
2023-05-13T17:33:22.996Z,98773.22
2023-05-13T17:38:25.389Z,98768.91
2023-05-13T17:43:27.689Z,98763.72
2023-05-13T17:48:30.289Z,98754.47
2023-05-13T17:53:34.533Z,98748.84
2023-05-13T17:58:37.510Z,98747.84
2023-05-13T18:03:39.673Z,98755.06
2023-05-13T18:08:41.881Z,98756.97
2023-05-13T18:13:44.014Z,98748.00
2023-05-13T18:18:46.296Z,98760.47
2023-05-13T18:23:49.957Z,98757.81
2023-05-13T18:28:52.326Z,98766.84
2023-05-13T18:33:54.535Z,98769.50
2023-05-13T18:38:56.841Z,98765.19
2023-05-13T18:43:59.147Z,98767.00
2023-05-13T18:49:01.881Z,98769.66
2023-05-13T18:54:05.178Z,98770.53
2023-05-13T18:59:07.706Z,98775.00
2023-05-13T19:04:11.042Z,98789.13
2023-05-13T19:09:13.591Z,98789.34
2023-05-13T19:14:17.195Z,98786.75
2023-05-13T19:19:20.724Z,98797.41
2023-05-13T19:24:23.348Z,98791.25
2023-05-13T19:29:29.042Z,98794.75
2023-05-13T19:34:31.680Z,98791.31
2023-05-13T19:39:34.565Z,98790.56
2023-05-13T19:44:38.285Z,98793.03
2023-05-13T19:49:41.113Z,98796.34
2023-05-13T19:54:44.816Z,98800.06
2023-05-13T19:59:47.682Z,98794.66
2023-05-13T20:04:51.090Z,98780.59
2023-05-13T20:09:56.819Z,98776.03
2023-05-13T20:15:00.736Z,98769.84
2023-05-13T20:20:03.365Z,98763.88
2023-05-13T20:25:06.537Z,98767.38
2023-05-13T20:30:09.887Z,98766.91
2023-05-13T20:35:12.547Z,98761.47
2023-05-13T20:40:15.050Z,98759.56
2023-05-13T20:45:17.892Z,98759.25
2023-05-13T20:50:20.482Z,98753.78
2023-05-13T20:55:23.500Z,98753.69
2023-05-13T21:00:26.199Z,98751.72
2023-05-13T21:05:28.673Z,98742.84
2023-05-13T21:10:30.892Z,98742.84
2023-05-13T21:15:32.996Z,98736.88
2023-05-13T21:20:34.741Z,98740.41
2023-05-13T21:25:36.804Z,98739.25
2023-05-13T21:30:38.360Z,98740.19
2023-05-13T21:35:40.198Z,98727.88
2023-05-13T21:40:43.514Z,98733.25
2023-05-13T21:45:48.100Z,98733.34
2023-05-13T21:50:49.633Z,98730.78
2023-05-13T21:55:51.188Z,98728.53
2023-05-13T22:00:53.686Z,98726.13
2023-05-13T22:05:55.290Z,98729.94
2023-05-13T22:10:56.894Z,98728.22
2023-05-13T22:15:58.438Z,98728.22
2023-05-13T22:21:00.811Z,98721.19
2023-05-13T22:26:02.403Z,98702.50
2023-05-13T22:31:11.644Z,98708.75
2023-05-13T22:36:13.720Z,98704.84
2023-05-13T22:41:15.263Z,98701.44
2023-05-13T22:46:17.010Z,98697.25
2023-05-13T22:51:18.668Z,98691.00
2023-05-13T22:56:20.208Z,98690.88
2023-05-13T23:01:21.775Z,98686.72
2023-05-13T23:06:23.407Z,98674.09
2023-05-13T23:11:24.965Z,98654.91
2023-05-13T23:16:26.579Z,98655.75
2023-05-13T23:21:28.358Z,98648.25
2023-05-13T23:26:29.929Z,98639.50
2023-05-13T23:31:33.013Z,98632.13
2023-05-13T23:36:35.230Z,98627.84
2023-05-13T23:41:36.861Z,98617.69
2023-05-13T23:46:38.413Z,98616.94
2023-05-13T23:51:39.958Z,98611.78
2023-05-13T23:56:41.531Z,98604.47
